Time;durP1;ratioP1;P1;durP2;ratioP2;P2;SDS_P1;SDS_P2;PMS_P1;PMS_P2;Temp;Humidity;BMP_temperature;BMP_pressure;BME280_temperature;BME280_humidity;BME280_pressure;Samples;Min_cycle;Max_cycle;Signal;HPM_P1;HPM_P2
2021/05/28 00:02:15;;;;;;;6.37;5.77;;;13.40;99.90;;;;;;4992469;28;20189;-58
2021/05/28 00:04:42;;;;;;;6.67;5.97;;;13.30;99.90;;;;;;4992332;28;20239;-59
2021/05/28 00:07:08;;;;;;;7.82;6.25;;;13.30;99.90;;;;;;4992396;28;20234;-58
2021/05/28 00:09:34;;;;;;;7.78;7.07;;;13.30;99.90;;;;;;4992306;28;20198;-58
2021/05/28 00:12:00;;;;;;;7.83;7.10;;;13.30;99.90;;;;;;4992086;28;20214;-58
2021/05/28 00:14:26;;;;;;;7.90;7.20;;;13.40;99.90;;;;;;4992387;28;20536;-58
2021/05/28 00:16:52;;;;;;;7.97;7.15;;;13.30;99.90;;;;;;4991940;28;20649;-58
2021/05/28 00:19:18;;;;;;;8.00;7.30;;;13.50;99.90;;;;;;4992143;28;20197;-58
2021/05/28 00:21:43;;;;;;;7.63;6.80;;;13.40;99.90;;;;;;4991956;28;20196;-58
2021/05/28 00:24:09;;;;;;;7.53;6.93;;;13.30;99.90;;;;;;4991366;28;20254;-58
2021/05/28 00:26:35;;;;;;;8.00;7.20;;;13.40;99.90;;;;;;4991797;28;20225;-59
2021/05/28 00:29:00;;;;;;;7.07;6.37;;;13.10;99.90;;;;;;4992552;28;20286;-58
2021/05/28 00:31:26;;;;;;;8.00;7.20;;;13.30;99.90;;;;;;4992162;28;20245;-58
2021/05/28 00:33:52;;;;;;;7.80;7.10;;;12.90;99.90;;;;;;4991783;28;20628;-58
2021/05/28 00:36:18;;;;;;;8.00;7.30;;;12.90;99.90;;;;;;4993002;28;20218;-58
2021/05/28 00:38:44;;;;;;;9.05;8.15;;;13.00;99.90;;;;;;4991292;28;20197;-58
2021/05/28 00:41:12;;;;;;;8.25;7.45;;;13.30;99.90;;;;;;4991841;28;20185;-58
2021/05/28 00:43:38;;;;;;;7.35;6.65;;;13.30;99.90;;;;;;4991005;28;20197;-58
2021/05/28 00:46:04;;;;;;;7.70;7.10;;;13.20;99.90;;;;;;4991465;28;20298;-59
2021/05/28 00:48:29;;;;;;;8.53;7.30;;;13.40;99.90;;;;;;4991282;28;20191;-58
2021/05/28 00:50:55;;;;;;;7.83;7.13;;;13.30;99.90;;;;;;4990893;28;20469;-58
2021/05/28 00:53:22;;;;;;;8.87;6.53;;;13.40;99.90;;;;;;4991210;28;20226;-58
2021/05/28 00:55:48;;;;;;;7.80;7.00;;;13.40;99.90;;;;;;4991287;28;20205;-58
2021/05/28 00:58:14;;;;;;;6.70;6.10;;;13.20;99.90;;;;;;4991371;28;20185;-57
2021/05/28 01:00:40;;;;;;;7.90;7.20;;;13.10;99.90;;;;;;4991679;28;20194;-58
2021/05/28 01:03:06;;;;;;;7.25;6.55;;;13.00;99.90;;;;;;4990853;28;20195;-58
2021/05/28 01:05:32;;;;;;;7.60;6.90;;;13.30;99.90;;;;;;4990913;28;20214;-58
2021/05/28 01:07:58;;;;;;;7.03;6.32;;;13.20;99.90;;;;;;4991352;28;20190;-58
2021/05/28 01:10:24;;;;;;;8.35;6.95;;;13.00;99.90;;;;;;4991243;28;20215;-58
2021/05/28 01:12:50;;;;;;;5.77;5.23;;;12.90;99.90;;;;;;4991104;28;20248;-58
2021/05/28 01:15:22;;;;;;;6.00;5.50;;;13.00;99.90;;;;;;4991158;28;20456;-58
2021/05/28 01:17:47;;;;;;;5.65;5.05;;;13.10;99.90;;;;;;4990582;28;20977;-58
2021/05/28 01:20:13;;;;;;;5.97;4.90;;;13.10;99.90;;;;;;4991172;28;20237;-58
2021/05/28 01:22:39;;;;;;;5.60;5.10;;;13.40;99.90;;;;;;4991393;28;20212;-58
2021/05/28 01:25:05;;;;;;;5.77;5.20;;;13.00;99.90;;;;;;4989055;28;20675;-58
2021/05/28 01:27:31;;;;;;;5.20;4.80;;;13.30;99.90;;;;;;4990944;28;21046;-58
2021/05/28 01:29:57;;;;;;;5.50;5.00;;;13.30;99.90;;;;;;4990673;28;20277;-58
2021/05/28 01:32:23;;;;;;;5.25;4.75;;;13.40;99.90;;;;;;4990694;28;20298;-59
2021/05/28 01:34:49;;;;;;;4.90;4.45;;;13.20;99.90;;;;;;4990968;28;20364;-59
2021/05/28 01:37:15;;;;;;;8.20;5.13;;;13.20;99.90;;;;;;4990322;28;20715;-59
2021/05/28 01:39:46;;;;;;;5.33;4.83;;;13.30;99.90;;;;;;4990528;28;20309;-58
2021/05/28 01:42:13;;;;;;;5.30;4.80;;;13.10;99.90;;;;;;5003187;28;20446;-59
2021/05/28 01:44:38;;;;;;;5.50;5.00;;;13.30;99.90;;;;;;4990210;28;20210;-59
2021/05/28 01:47:04;;;;;;;5.63;4.70;;;13.20;99.90;;;;;;4990546;28;20191;-58
2021/05/28 01:49:30;;;;;;;5.07;3.92;;;13.20;99.90;;;;;;4990576;28;20193;-58
2021/05/28 01:51:56;;;;;;;4.53;4.13;;;13.20;99.90;;;;;;4990180;28;20589;-59
2021/05/28 01:54:22;;;;;;;4.20;3.90;;;13.30;99.90;;;;;;4990294;28;20197;-59
2021/05/28 01:56:48;;;;;;;4.60;4.20;;;13.20;99.90;;;;;;4989864;28;20182;-59
2021/05/28 01:59:24;;;;;;;4.10;3.80;;;13.20;99.90;;;;;;4989745;28;20221;-58
2021/05/28 02:01:53;;;;;;;8.20;5.80;;;13.20;99.90;;;;;;4991887;28;20199;-59
2021/05/28 02:04:20;;;;;;;4.10;3.70;;;12.80;99.90;;;;;;4990082;28;20193;-59
2021/05/28 02:06:46;;;;;;;3.63;3.30;;;13.00;99.90;;;;;;4990220;28;20195;-59
2021/05/28 02:09:12;;;;;;;3.97;3.60;;;13.20;99.90;;;;;;4991493;28;20185;-58
2021/05/28 02:11:37;;;;;;;4.20;3.80;;;13.00;99.90;;;;;;4989658;28;20211;-59
2021/05/28 02:14:04;;;;;;;4.60;4.20;;;13.00;99.90;;;;;;4989942;28;20189;-59
2021/05/28 02:16:31;;;;;;;4.95;4.45;;;13.20;99.90;;;;;;4989478;28;20208;-59
2021/05/28 02:18:57;;;;;;;4.07;3.78;;;13.00;99.90;;;;;;4989477;28;20228;-59
2021/05/28 02:21:23;;;;;;;4.63;4.10;;;13.00;99.90;;;;;;4990016;28;20198;-59
2021/05/28 02:23:48;;;;;;;4.57;3.90;;;13.00;99.90;;;;;;4989268;28;20274;-58
2021/05/28 02:26:14;;;;;;;4.03;3.73;;;13.00;99.90;;;;;;4988430;28;20208;-59
2021/05/28 02:28:40;;;;;;;4.00;3.60;;;13.10;99.90;;;;;;4989445;28;20729;-59
2021/05/28 02:31:05;;;;;;;3.77;3.47;;;13.20;99.90;;;;;;4989544;28;20650;-59
2021/05/28 02:33:31;;;;;;;4.07;3.77;;;13.10;99.90;;;;;;4990917;28;20181;-59
2021/05/28 02:35:58;;;;;;;3.90;3.60;;;13.10;99.90;;;;;;4990734;28;20222;-59
2021/05/28 02:38:23;;;;;;;4.18;3.50;;;13.00;99.90;;;;;;4989275;28;20198;-59
2021/05/28 02:40:49;;;;;;;3.80;3.40;;;13.30;99.90;;;;;;4990452;28;20190;-59
2021/05/28 02:43:14;;;;;;;4.00;3.60;;;13.30;99.90;;;;;;4989491;28;20226;-59
2021/05/28 02:45:40;;;;;;;4.20;3.90;;;13.30;99.90;;;;;;4989330;28;20214;-59
2021/05/28 02:48:06;;;;;;;4.90;4.43;;;13.10;99.90;;;;;;4989549;28;20203;-59
2021/05/28 02:50:32;;;;;;;4.33;3.90;;;13.10;99.90;;;;;;4989585;28;20746;-59
2021/05/28 02:53:02;;;;;;;4.22;3.80;;;13.20;99.90;;;;;;4989142;28;20198;-59
2021/05/28 02:55:29;;;;;;;3.90;3.58;;;13.10;99.90;;;;;;4990588;28;20215;-58
2021/05/28 02:57:54;;;;;;;4.20;3.80;;;13.30;99.90;;;;;;4988946;28;20186;-59
2021/05/28 03:00:21;;;;;;;4.20;3.80;;;12.90;99.90;;;;;;4988836;28;20197;-59
2021/05/28 03:02:48;;;;;;;4.28;3.40;;;13.00;99.90;;;;;;4990629;28;20197;-59
2021/05/28 03:05:14;;;;;;;3.65;3.35;;;13.20;99.90;;;;;;4988996;28;20209;-59
2021/05/28 03:07:40;;;;;;;4.43;4.05;;;12.90;99.90;;;;;;4989156;28;20208;-59
2021/05/28 03:10:06;;;;;;;4.03;3.73;;;12.80;99.90;;;;;;4990773;28;20213;-58
2021/05/28 03:12:32;;;;;;;3.70;3.40;;;12.90;99.90;;;;;;4990335;28;20200;-59
2021/05/28 03:14:58;;;;;;;4.47;4.07;;;13.10;99.90;;;;;;4993300;28;20213;-59
2021/05/28 03:17:23;;;;;;;4.43;4.07;;;13.10;99.90;;;;;;4992992;28;20444;-58
2021/05/28 03:19:50;;;;;;;4.10;3.70;;;12.70;99.90;;;;;;4993051;28;20251;-58
2021/05/28 03:22:34;;;;;;;4.15;3.65;;;12.60;99.90;;;;;;4993200;28;20195;-59
2021/05/28 03:25:04;;;;;;;4.20;3.80;;;12.70;99.90;;;;;;4992535;28;20222;-58
2021/05/28 03:27:30;;;;;;;4.50;4.10;;;12.60;99.90;;;;;;4992822;28;20251;-58
2021/05/28 03:29:56;;;;;;;4.27;3.87;;;12.50;99.90;;;;;;4993685;28;20645;-58
2021/05/28 03:32:23;;;;;;;4.17;3.80;;;12.60;99.90;;;;;;4993358;28;20506;-58
2021/05/28 03:34:49;;;;;;;4.10;3.70;;;12.30;99.90;;;;;;4993187;28;20197;-59
2021/05/28 03:37:14;;;;;;;4.30;4.00;;;12.30;99.90;;;;;;4992414;28;20192;-59
2021/05/28 03:39:40;;;;;;;3.83;3.50;;;12.20;99.90;;;;;;4993150;28;20200;-59
2021/05/28 03:42:06;;;;;;;3.80;3.33;;;12.00;99.90;;;;;;4992851;28;20493;-58
2021/05/28 03:44:35;;;;;;;5.60;3.90;;;12.00;99.90;;;;;;4992682;28;20643;-59
2021/05/28 03:47:00;;;;;;;5.55;3.53;;;12.10;99.90;;;;;;4992771;28;20598;-58
2021/05/28 03:49:26;;;;;;;4.83;4.43;;;12.00;99.90;;;;;;4993116;28;20189;-58
2021/05/28 03:51:52;;;;;;;4.50;3.83;;;12.10;99.90;;;;;;4992448;28;20211;-58
2021/05/28 03:54:17;;;;;;;5.80;3.53;;;11.80;99.90;;;;;;4991383;28;20195;-59
2021/05/28 03:56:43;;;;;;;4.43;3.57;;;11.80;99.90;;;;;;4992196;28;20189;-58
2021/05/28 03:59:09;;;;;;;4.00;3.70;;;12.00;99.90;;;;;;4992059;28;20496;-59
2021/05/28 04:01:34;;;;;;;5.20;3.80;;;12.10;99.90;;;;;;4992488;28;20447;-59
2021/05/28 04:04:00;;;;;;;4.10;3.70;;;12.10;99.90;;;;;;4992087;28;20185;-59
2021/05/28 04:06:26;;;;;;;6.13;3.60;;;12.20;99.90;;;;;;4992723;28;20211;-58
2021/05/28 04:08:51;;;;;;;4.33;4.00;;;12.00;99.90;;;;;;4992581;28;20274;-58
2021/05/28 04:11:17;;;;;;;5.00;4.00;;;12.20;99.90;;;;;;4992831;28;20204;-58
2021/05/28 04:13:43;;;;;;;5.43;3.90;;;12.10;99.90;;;;;;4984800;28;20302;-59
2021/05/28 04:16:09;;;;;;;4.80;4.40;;;12.00;99.90;;;;;;4989512;28;20460;-59
2021/05/28 04:18:34;;;;;;;4.37;3.97;;;12.10;99.90;;;;;;4989612;28;20192;-58
2021/05/28 04:21:00;;;;;;;4.53;4.13;;;11.90;99.90;;;;;;4984661;28;20308;-59
2021/05/28 04:23:25;;;;;;;4.00;3.53;;;11.90;99.90;;;;;;4983106;28;20188;-59
2021/05/28 04:25:51;;;;;;;5.03;4.53;;;12.10;99.90;;;;;;4978961;28;20555;-61
2021/05/28 04:28:17;;;;;;;5.60;4.60;;;12.10;99.90;;;;;;4985253;28;20231;-58
2021/05/28 04:30:43;;;;;;;5.00;4.50;;;12.20;99.90;;;;;;4984780;28;20216;-57
2021/05/28 04:33:09;;;;;;;6.63;4.85;;;11.90;99.90;;;;;;4989469;28;20196;-59
2021/05/28 04:35:35;;;;;;;5.20;4.77;;;11.90;99.90;;;;;;4990669;28;20287;-60
2021/05/28 04:38:01;;;;;;;5.85;5.35;;;11.80;99.90;;;;;;4988433;28;20181;-57
2021/05/28 04:40:28;;;;;;;5.80;5.28;;;12.10;99.90;;;;;;4989029;28;20219;-58
2021/05/28 04:42:54;;;;;;;6.45;5.85;;;12.00;99.90;;;;;;4990517;28;20614;-58
2021/05/28 04:45:21;;;;;;;6.13;5.30;;;12.20;99.90;;;;;;4989378;28;20610;-59
2021/05/28 04:47:46;;;;;;;6.20;5.50;;;12.10;99.90;;;;;;4985598;28;20188;-58
2021/05/28 04:50:13;;;;;;;6.33;5.73;;;12.40;99.90;;;;;;4991464;28;20698;-58
2021/05/28 04:52:39;;;;;;;5.80;5.30;;;12.50;99.90;;;;;;4981922;28;20770;-58
2021/05/28 04:55:05;;;;;;;6.85;5.30;;;12.50;99.90;;;;;;4980919;28;20206;-59
2021/05/28 04:57:31;;;;;;;6.65;5.95;;;12.50;99.90;;;;;;4984363;28;20185;-59
2021/05/28 04:59:56;;;;;;;9.37;6.33;;;12.80;99.90;;;;;;4982398;28;20598;-58
2021/05/28 05:02:22;;;;;;;6.83;6.10;;;12.80;99.90;;;;;;4988625;28;20185;-58
2021/05/28 05:04:47;;;;;;;9.20;5.57;;;12.60;99.90;;;;;;4990890;28;20660;-59
2021/05/28 05:07:13;;;;;;;6.20;5.67;;;12.70;99.90;;;;;;4989663;28;20572;-59
2021/05/28 05:09:39;;;;;;;6.13;5.50;;;12.60;99.90;;;;;;4984796;28;20188;-58
2021/05/28 05:12:05;;;;;;;10.53;7.00;;;12.70;99.90;;;;;;4983833;28;20247;-59
2021/05/28 05:14:31;;;;;;;5.50;5.00;;;12.70;99.90;;;;;;4988202;28;20273;-58
2021/05/28 05:16:56;;;;;;;7.03;6.30;;;13.00;99.90;;;;;;4987888;28;20339;-58
2021/05/28 05:19:22;;;;;;;6.80;6.00;;;12.90;99.90;;;;;;4989679;28;20185;-59
2021/05/28 05:21:49;;;;;;;7.97;6.33;;;12.90;99.90;;;;;;4989670;28;20217;-58
2021/05/28 05:24:15;;;;;;;6.90;5.57;;;13.10;99.90;;;;;;4985543;28;20230;-57
2021/05/28 05:26:40;;;;;;;9.07;7.10;;;12.70;99.90;;;;;;4989818;28;20218;-59
2021/05/28 05:29:08;;;;;;;7.43;6.23;;;13.50;99.90;;;;;;4991277;28;20185;-57
2021/05/28 05:31:34;;;;;;;7.50;6.80;;;13.20;99.90;;;;;;4988819;28;20329;-58
2021/05/28 05:34:00;;;;;;;9.33;6.60;;;13.30;99.90;;;;;;4984762;28;20285;-57
2021/05/28 05:36:26;;;;;;;9.53;6.23;;;13.40;99.90;;;;;;4982899;28;21301;-58
2021/05/28 05:38:51;;;;;;;9.43;6.27;;;12.90;99.90;;;;;;4981284;28;20201;-59
2021/05/28 05:41:17;;;;;;;8.30;7.00;;;13.00;99.90;;;;;;4982447;28;20587;-60
2021/05/28 05:43:43;;;;;;;9.80;7.20;;;12.90;99.90;;;;;;4985463;28;20664;-60
2021/05/28 05:46:08;;;;;;;10.70;6.80;;;13.10;99.90;;;;;;4980504;28;21177;-61
2021/05/28 05:48:35;;;;;;;10.30;6.47;;;13.30;99.90;;;;;;4981981;28;20193;-61
2021/05/28 05:51:00;;;;;;;7.97;6.50;;;13.00;99.90;;;;;;4982746;28;20214;-60
2021/05/28 05:53:26;;;;;;;7.90;6.50;;;13.40;99.90;;;;;;4984132;28;20776;-58
2021/05/28 05:55:52;;;;;;;11.90;8.10;;;13.50;99.90;;;;;;4985125;28;20231;-59
2021/05/28 05:58:18;;;;;;;8.23;7.43;;;13.40;99.90;;;;;;4982048;28;20242;-58
2021/05/28 06:00:43;;;;;;;9.00;6.63;;;13.40;99.90;;;;;;4986222;28;20199;-58
2021/05/28 06:03:10;;;;;;;7.47;6.70;;;13.60;99.90;;;;;;4983305;28;20202;-58
2021/05/28 06:05:36;;;;;;;7.57;6.78;;;13.80;99.90;;;;;;4978043;28;20214;-59
2021/05/28 06:08:02;;;;;;;8.73;6.53;;;13.70;99.90;;;;;;4981402;28;20183;-59
2021/05/28 06:10:27;;;;;;;8.38;7.57;;;13.60;99.90;;;;;;4985553;28;20294;-58
2021/05/28 06:13:00;;;;;;;8.67;7.80;;;13.70;99.90;;;;;;4983096;28;20271;-58
2021/05/28 06:15:25;;;;;;;7.32;6.05;;;13.50;99.90;;;;;;4982008;28;20301;-59
2021/05/28 06:17:51;;;;;;;6.97;6.17;;;13.90;99.90;;;;;;4981078;28;20184;-59
2021/05/28 06:20:16;;;;;;;7.10;6.07;;;14.10;99.90;;;;;;4988422;28;20187;-58
2021/05/28 06:22:42;;;;;;;6.93;6.20;;;13.80;99.90;;;;;;4985201;28;20187;-59
2021/05/28 06:25:09;;;;;;;9.20;6.77;;;14.20;99.90;;;;;;4987984;28;20237;-61
2021/05/28 06:27:34;;;;;;;7.35;6.47;;;14.20;99.90;;;;;;4988691;28;20641;-60
2021/05/28 06:30:00;;;;;;;9.30;7.53;;;14.30;99.90;;;;;;4987338;28;20222;-59
2021/05/28 06:32:25;;;;;;;7.43;6.73;;;14.30;99.90;;;;;;4987428;28;20191;-58
2021/05/28 06:34:51;;;;;;;7.17;6.47;;;14.70;99.90;;;;;;4988955;28;20206;-59
2021/05/28 06:37:17;;;;;;;8.17;6.60;;;15.00;99.90;;;;;;4979072;28;20203;-59
2021/05/28 06:39:42;;;;;;;6.17;5.60;;;14.40;99.50;;;;;;4986648;28;20207;-59
2021/05/28 06:42:08;;;;;;;8.90;7.03;;;14.90;99.50;;;;;;4987893;28;20184;-61
2021/05/28 06:44:34;;;;;;;6.80;6.10;;;14.70;99.40;;;;;;4987170;28;20211;-61
2021/05/28 06:46:59;;;;;;;7.60;6.10;;;14.90;99.20;;;;;;4987538;28;20601;-63
2021/05/28 06:49:25;;;;;;;8.87;6.60;;;14.60;99.40;;;;;;4986152;28;20195;-62
2021/05/28 06:51:51;;;;;;;8.67;6.10;;;14.70;99.40;;;;;;4986507;28;20310;-60
2021/05/28 06:54:17;;;;;;;6.53;5.90;;;14.80;98.90;;;;;;4987847;28;20179;-60
2021/05/28 06:56:43;;;;;;;6.80;5.55;;;15.30;98.60;;;;;;4987946;28;20213;-59
2021/05/28 06:59:10;;;;;;;8.23;6.20;;;15.50;98.00;;;;;;5002438;28;20242;-60
2021/05/28 07:01:36;;;;;;;5.90;5.40;;;16.00;97.90;;;;;;4983579;28;20191;-59
2021/05/28 07:04:03;;;;;;;7.27;5.57;;;16.50;96.20;;;;;;4988736;28;20207;-60
2021/05/28 07:06:31;;;;;;;7.68;5.85;;;16.80;94.50;;;;;;4986027;28;20813;-59
2021/05/28 07:08:57;;;;;;;5.90;5.35;;;16.80;93.60;;;;;;4987341;28;20191;-62
2021/05/28 07:11:26;;;;;;;6.17;5.53;;;16.50;94.80;;;;;;4982811;28;20708;-62
2021/05/28 07:13:52;;;;;;;7.35;5.60;;;17.10;95.00;;;;;;4987204;28;20293;-59
2021/05/28 07:16:18;;;;;;;5.43;4.50;;;16.70;93.50;;;;;;4981048;28;20245;-58
2021/05/28 07:18:43;;;;;;;7.97;6.13;;;17.10;93.10;;;;;;4986286;28;20278;-60
2021/05/28 07:21:09;;;;;;;6.47;5.97;;;17.40;93.20;;;;;;4981721;28;20771;-61
2021/05/28 07:23:35;;;;;;;6.80;6.10;;;17.00;93.70;;;;;;4989014;28;20180;-61
2021/05/28 07:26:02;;;;;;;9.13;5.40;;;16.90;93.10;;;;;;4985363;28;20707;-60
2021/05/28 07:28:28;;;;;;;6.45;5.85;;;17.40;92.90;;;;;;4988720;28;20192;-60
2021/05/28 07:30:55;;;;;;;5.88;5.28;;;17.60;92.30;;;;;;4987236;28;20321;-59
2021/05/28 07:33:21;;;;;;;5.90;5.40;;;17.70;92.20;;;;;;4987146;28;20271;-59
2021/05/28 07:35:47;;;;;;;7.63;6.20;;;17.40;91.90;;;;;;4986944;28;21556;-61
2021/05/28 07:38:13;;;;;;;6.90;5.40;;;16.80;93.50;;;;;;4985736;28;20480;-60
2021/05/28 07:40:40;;;;;;;8.03;5.40;;;17.50;92.50;;;;;;4990078;28;20553;-61
2021/05/28 07:43:05;;;;;;;9.35;5.68;;;18.00;91.30;;;;;;4987490;28;20439;-60
2021/05/28 07:45:31;;;;;;;6.37;5.80;;;17.80;91.30;;;;;;4986438;28;20575;-61
2021/05/28 07:47:57;;;;;;;6.70;5.60;;;18.00;91.20;;;;;;4984418;28;20255;-61
2021/05/28 07:50:23;;;;;;;8.77;6.00;;;18.30;91.40;;;;;;4981903;28;21065;-60
2021/05/28 07:52:49;;;;;;;6.70;6.00;;;18.30;91.20;;;;;;4984215;28;20199;-59
2021/05/28 07:55:17;;;;;;;6.40;5.80;;;18.40;90.60;;;;;;4981664;28;20210;-59
2021/05/28 07:57:42;;;;;;;5.75;5.20;;;18.60;90.20;;;;;;4977180;28;20245;-58
2021/05/28 08:00:09;;;;;;;7.83;5.57;;;18.00;90.70;;;;;;4986347;28;20557;-59
2021/05/28 08:02:35;;;;;;;6.13;5.53;;;18.00;91.10;;;;;;4985739;28;20207;-60
2021/05/28 08:05:02;;;;;;;5.80;4.93;;;18.10;91.20;;;;;;4989003;28;20330;-60
2021/05/28 08:07:28;;;;;;;6.57;6.00;;;17.90;91.20;;;;;;4985349;28;20183;-60
2021/05/28 08:09:54;;;;;;;8.70;6.47;;;17.80;91.30;;;;;;4981493;28;20554;-60
2021/05/28 08:12:19;;;;;;;7.20;5.53;;;17.70;91.40;;;;;;4983810;28;20474;-60
2021/05/28 08:14:45;;;;;;;6.10;5.10;;;18.70;90.80;;;;;;4983761;28;20660;-58
2021/05/28 08:17:11;;;;;;;6.70;6.00;;;18.50;89.20;;;;;;4985609;28;20194;-57
2021/05/28 08:19:37;;;;;;;5.07;4.63;;;18.30;89.30;;;;;;4984596;28;20610;-59
2021/05/28 08:22:03;;;;;;;5.00;4.50;;;18.60;88.40;;;;;;5007108;28;20948;-59
2021/05/28 08:24:28;;;;;;;5.63;4.10;;;18.50;87.30;;;;;;4985293;28;20319;-58
2021/05/28 08:26:54;;;;;;;5.70;5.03;;;18.00;88.50;;;;;;4987100;28;20274;-59
2021/05/28 08:29:20;;;;;;;5.17;4.67;;;17.80;86.90;;;;;;4986038;28;20195;-57
2021/05/28 08:31:45;;;;;;;5.10;4.60;;;17.50;89.40;;;;;;4985676;28;20482;-55
2021/05/28 08:34:11;;;;;;;5.50;5.00;;;17.40;89.70;;;;;;4984349;28;20670;-52
2021/05/28 08:36:37;;;;;;;6.00;5.43;;;16.90;90.10;;;;;;4987311;28;20231;-54
2021/05/28 08:39:05;;;;;;;6.50;5.83;;;17.30;90.90;;;;;;4987482;28;20192;-54
2021/05/28 08:41:33;;;;;;;5.78;4.82;;;17.40;90.90;;;;;;4985851;28;20616;-54
2021/05/28 08:44:00;;;;;;;6.22;5.72;;;17.80;90.40;;;;;;4985538;28;20214;-55
2021/05/28 08:46:25;;;;;;;5.90;5.30;;;18.10;90.20;;;;;;4981768;28;20211;-56
2021/05/28 08:48:51;;;;;;;7.13;6.50;;;18.20;89.20;;;;;;4980931;28;20202;-62
2021/05/28 08:51:18;;;;;;;6.30;5.70;;;18.70;88.20;;;;;;4980783;28;20219;-59
2021/05/28 08:53:44;;;;;;;6.38;5.78;;;19.00;87.10;;;;;;4985188;28;20443;-59
2021/05/28 08:56:10;;;;;;;6.50;5.83;;;18.60;86.70;;;;;;4984290;28;20206;-60
2021/05/28 08:58:37;;;;;;;5.18;4.75;;;18.30;87.50;;;;;;4986808;28;20180;-60
2021/05/28 09:01:03;;;;;;;8.93;5.13;;;18.50;86.40;;;;;;4986800;28;20186;-61
2021/05/28 09:03:30;;;;;;;5.97;4.53;;;19.00;84.90;;;;;;4982206;28;20286;-62
2021/05/28 09:06:14;;;;;;;5.55;4.78;;;18.80;85.50;;;;;;4985744;28;20719;-61
2021/05/28 09:08:39;;;;;;;5.13;4.57;;;18.80;84.20;;;;;;4983955;28;20525;-62
2021/05/28 09:11:19;;;;;;;6.60;6.10;;;18.90;85.00;;;;;;4984480;28;20712;-61
2021/05/28 09:13:56;;;;;;;6.20;5.53;;;18.80;85.30;;;;;;4982972;28;20190;-61
2021/05/28 09:16:26;;;;;;;5.95;5.45;;;18.70;84.20;;;;;;4982618;28;20202;-60
2021/05/28 09:19:00;;;;;;;5.70;4.75;;;18.20;85.90;;;;;;4984792;28;20201;-60
2021/05/28 09:21:36;;;;;;;7.40;4.50;;;18.40;83.70;;;;;;4983652;28;20281;-58
2021/05/28 09:24:06;;;;;;;5.40;4.38;;;18.30;84.20;;;;;;4984189;28;20196;-58
2021/05/28 09:26:33;;;;;;;5.18;4.78;;;17.60;85.10;;;;;;4981892;28;20207;-57
2021/05/28 09:29:01;;;;;;;5.00;4.60;;;17.60;86.30;;;;;;4983456;28;20191;-57
2021/05/28 09:31:29;;;;;;;5.93;5.15;;;17.50;85.50;;;;;;4981653;28;20290;-59
2021/05/28 09:33:57;;;;;;;6.35;5.72;;;17.40;85.70;;;;;;4981601;28;20184;-59
2021/05/28 09:36:24;;;;;;;6.63;5.50;;;17.40;87.30;;;;;;4982338;28;20195;-59
2021/05/28 09:39:00;;;;;;;5.85;5.22;;;17.30;87.70;;;;;;4983056;28;20306;-59
2021/05/28 09:41:46;;;;;;;6.95;6.35;;;17.30;86.90;;;;;;4998090;28;20187;-57
2021/05/28 09:44:25;;;;;;;7.43;6.70;;;17.50;87.00;;;;;;4984175;28;20538;-56
2021/05/28 09:47:00;;;;;;;5.40;4.90;;;17.50;87.30;;;;;;4984132;28;20188;-57
2021/05/28 09:49:28;;;;;;;6.68;5.07;;;17.50;85.20;;;;;;4982281;28;20443;-60
2021/05/28 09:52:16;;;;;;;6.63;4.57;;;17.40;86.50;;;;;;4983992;28;20246;-57
2021/05/28 09:54:59;;;;;;;5.85;5.35;;;17.10;86.80;;;;;;4984094;28;20621;-58
2021/05/28 09:57:31;;;;;;;5.00;4.50;;;17.30;87.40;;;;;;4981449;28;20226;-57
2021/05/28 09:59:56;;;;;;;6.55;4.60;;;17.90;85.30;;;;;;4981525;28;20202;-59
2021/05/28 10:02:35;;;;;;;6.67;5.03;;;18.60;83.10;;;;;;4980051;28;20601;-61
2021/05/28 10:05:01;;;;;;;5.82;5.40;;;18.50;82.70;;;;;;4984223;28;20700;-61
2021/05/28 10:07:28;;;;;;;7.50;5.05;;;18.60;82.90;;;;;;4980016;28;20616;-59
2021/05/28 10:09:55;;;;;;;6.50;6.00;;;18.30;83.70;;;;;;4984069;28;20538;-59
2021/05/28 10:12:25;;;;;;;5.88;5.28;;;18.20;85.00;;;;;;4986464;28;20206;-59
2021/05/28 10:14:52;;;;;;;6.47;5.05;;;18.20;85.10;;;;;;4983147;28;20208;-59
2021/05/28 10:17:19;;;;;;;7.40;5.80;;;18.20;86.10;;;;;;4990006;28;20214;-59
2021/05/28 10:19:46;;;;;;;5.30;4.80;;;18.40;85.10;;;;;;4985731;28;20712;-59
2021/05/28 10:22:13;;;;;;;5.00;4.45;;;18.80;83.00;;;;;;4987461;28;20195;-59
2021/05/28 10:24:39;;;;;;;4.25;3.92;;;19.30;79.50;;;;;;4981975;28;20203;-59
2021/05/28 10:27:06;;;;;;;5.20;4.80;;;20.00;77.80;;;;;;4982058;28;20191;-59
2021/05/28 10:29:32;;;;;;;4.95;4.45;;;20.50;75.70;;;;;;4988209;28;20660;-59
2021/05/28 10:32:00;;;;;;;5.13;4.63;;;19.90;75.30;;;;;;4988039;28;20207;-59
2021/05/28 10:34:30;;;;;;;5.32;4.93;;;20.40;76.10;;;;;;4987377;28;20196;-59
2021/05/28 10:36:58;;;;;;;5.45;4.82;;;19.90;74.10;;;;;;4988680;28;20266;-59
2021/05/28 10:39:26;;;;;;;4.15;3.75;;;20.00;74.40;;;;;;4987268;28;20205;-59
2021/05/28 10:42:11;;;;;;;4.68;4.38;;;20.00;74.30;;;;;;4989909;28;20197;-59
2021/05/28 10:44:43;;;;;;;4.10;3.75;;;19.60;74.00;;;;;;4984938;28;20208;-59
2021/05/28 10:47:12;;;;;;;4.68;4.10;;;19.50;74.60;;;;;;4981078;28;20184;-58
2021/05/28 10:49:44;;;;;;;5.10;4.38;;;19.00;74.20;;;;;;4982932;28;20190;-59
2021/05/28 10:52:13;;;;;;;5.38;4.47;;;19.00;74.80;;;;;;4984576;28;20254;-59
2021/05/28 10:54:44;;;;;;;4.85;3.75;;;19.10;74.10;;;;;;4986566;28;20195;-59
2021/05/28 10:57:24;;;;;;;3.92;3.40;;;18.90;73.60;;;;;;4984741;28;20179;-59
2021/05/28 10:59:54;;;;;;;6.55;3.38;;;19.80;72.20;;;;;;4986604;28;20187;-60
2021/05/28 11:02:46;;;;;;;8.13;5.13;;;21.50;66.90;;;;;;4982123;28;20230;-59
2021/05/28 11:05:12;;;;;;;8.97;8.10;;;22.10;64.30;;;;;;4981282;28;20485;-59
2021/05/28 11:07:45;;;;;;;3.93;3.50;;;23.50;60.80;;;;;;4984367;28;20447;-59
2021/05/28 11:10:25;;;;;;;4.90;4.40;;;24.10;57.60;;;;;;4987863;28;21033;-59
2021/05/28 11:12:52;;;;;;;3.60;3.30;;;23.80;57.10;;;;;;4979295;28;20557;-59
2021/05/28 11:15:23;;;;;;;3.80;3.50;;;22.90;58.30;;;;;;4980812;28;20475;-58
2021/05/28 11:17:53;;;;;;;4.20;3.80;;;22.80;59.10;;;;;;4983618;28;20445;-56
2021/05/28 11:20:39;;;;;;;5.90;4.03;;;23.20;58.90;;;;;;4985960;28;20479;-56
2021/05/28 11:23:12;;;;;;;3.83;3.53;;;23.40;57.40;;;;;;4989331;28;20455;-58
2021/05/28 11:25:58;;;;;;;4.80;4.40;;;23.50;57.60;;;;;;4985350;28;20518;-57
2021/05/28 11:28:24;;;;;;;4.57;4.20;;;25.00;55.00;;;;;;4983501;28;20449;-57
2021/05/28 11:31:00;;;;;;;4.20;3.80;;;24.40;54.20;;;;;;4985590;28;20470;-57
2021/05/28 11:33:37;;;;;;;3.55;3.20;;;22.90;56.20;;;;;;4988375;28;20445;-57
2021/05/28 11:36:24;;;;;;;3.80;3.50;;;22.30;57.60;;;;;;4987729;28;20203;-57
2021/05/28 11:39:00;;;;;;;3.78;3.47;;;21.80;57.90;;;;;;5006197;28;20585;-58
2021/05/28 11:42:04;;;;;;;3.20;3.00;;;21.40;58.80;;;;;;4990482;28;20212;-57
2021/05/28 11:44:32;;;;;;;3.30;3.00;;;20.90;59.40;;;;;;4912411;29;20605;-58
2021/05/28 11:46:58;;;;;;;3.90;3.60;;;20.80;60.00;;;;;;4893834;29;20691;-58
2021/05/28 11:49:24;;;;;;;3.95;3.53;;;20.70;60.70;;;;;;4948599;28;20195;-57
2021/05/28 11:52:02;;;;;;;3.70;3.40;;;20.00;60.00;;;;;;4991836;28;20625;-57
2021/05/28 11:54:30;;;;;;;4.22;3.55;;;20.00;62.00;;;;;;4988740;28;20179;-56
2021/05/28 11:57:02;;;;;;;4.05;3.60;;;19.80;63.50;;;;;;4991722;28;20192;-60
2021/05/28 11:59:49;;;;;;;3.15;2.95;;;19.70;64.70;;;;;;4990409;28;20198;-56
2021/05/28 12:02:37;;;;;;;3.00;2.80;;;19.60;64.70;;;;;;4990242;28;20191;-57
2021/05/28 12:05:05;;;;;;;4.30;4.00;;;19.40;63.90;;;;;;4982341;28;20223;-56
2021/05/28 12:07:31;;;;;;;4.13;3.72;;;18.90;65.80;;;;;;4991920;28;20226;-56
2021/05/28 12:10:00;;;;;;;3.70;3.40;;;18.80;66.40;;;;;;4989481;28;20250;-57
2021/05/28 12:12:26;;;;;;;2.97;2.70;;;18.90;66.50;;;;;;4987744;28;20522;-57
2021/05/28 12:15:06;;;;;;;2.47;2.27;;;19.00;65.30;;;;;;4991261;28;20215;-59
2021/05/28 12:17:32;;;;;;;4.72;3.10;;;19.00;63.30;;;;;;4990276;28;22384;-57
2021/05/28 12:20:11;;;;;;;3.10;2.80;;;18.80;63.10;;;;;;4991308;28;20640;-56
2021/05/28 12:23:00;;;;;;;4.40;4.00;;;18.70;63.10;;;;;;4992111;28;20208;-57
2021/05/28 12:25:28;;;;;;;4.47;3.03;;;19.00;63.90;;;;;;4987855;28;20215;-56
2021/05/28 12:27:54;;;;;;;6.07;4.38;;;19.20;63.40;;;;;;4990625;28;20374;-57
2021/05/28 12:30:24;;;;;;;3.30;3.00;;;19.30;64.60;;;;;;4987835;28;20196;-57
2021/05/28 12:32:51;;;;;;;3.15;2.95;;;19.70;63.70;;;;;;4989747;28;20554;-56
2021/05/28 12:35:17;;;;;;;2.72;2.40;;;20.00;62.40;;;;;;4987712;28;20293;-58
2021/05/28 12:38:04;;;;;;;2.87;2.67;;;19.70;60.70;;;;;;4982041;28;20624;-58
2021/05/28 12:40:30;;;;;;;4.65;2.70;;;19.40;62.60;;;;;;4985219;28;20196;-58
2021/05/28 12:42:57;;;;;;;2.07;1.97;;;19.50;58.80;;;;;;4981228;28;20184;-58
2021/05/28 12:45:36;;;;;;;3.00;2.60;;;19.20;58.50;;;;;;4983367;28;20557;-58
2021/05/28 12:48:02;;;;;;;2.72;2.53;;;19.20;62.80;;;;;;4985439;28;20532;-58
2021/05/28 12:50:33;;;;;;;3.80;3.50;;;19.10;64.00;;;;;;4982263;28;20190;-59